sensor_id;sensor_type;location;lat;lon;timestamp;temperature;humidity
5899;DHT22;2975;50.956;6.962;2023-05-10T00:01:51;14.00;99.90
5899;DHT22;2975;50.956;6.962;2023-05-10T00:04:16;14.00;99.90
5899;DHT22;2975;50.956;6.962;2023-05-10T00:06:42;14.00;99.90
5899;DHT22;2975;50.956;6.962;2023-05-10T00:09:07;14.00;99.90
5899;DHT22;2975;50.956;6.962;2023-05-10T00:11:33;14.00;99.90
5899;DHT22;2975;50.956;6.962;2023-05-10T00:13:59;14.00;99.90
5899;DHT22;2975;50.956;6.962;2023-05-10T00:16:24;14.00;99.90
5899;DHT22;2975;50.956;6.962;2023-05-10T00:18:50;14.00;99.90
5899;DHT22;2975;50.956;6.962;2023-05-10T00:21:15;14.00;99.90
5899;DHT22;2975;50.956;6.962;2023-05-10T00:23:41;14.00;99.90
5899;DHT22;2975;50.956;6.962;2023-05-10T00:26:07;13.90;99.90
5899;DHT22;2975;50.956;6.962;2023-05-10T00:28:32;13.90;99.90
5899;DHT22;2975;50.956;6.962;2023-05-10T00:30:58;13.90;99.90
5899;DHT22;2975;50.956;6.962;2023-05-10T00:33:23;13.90;99.90
5899;DHT22;2975;50.956;6.962;2023-05-10T00:35:49;13.90;99.90
5899;DHT22;2975;50.956;6.962;2023-05-10T00:38:14;13.90;99.90
5899;DHT22;2975;50.956;6.962;2023-05-10T00:40:40;14.00;99.90
5899;DHT22;2975;50.956;6.962;2023-05-10T00:43:06;14.00;99.90
5899;DHT22;2975;50.956;6.962;2023-05-10T00:45:32;14.00;99.90
5899;DHT22;2975;50.956;6.962;2023-05-10T00:48:01;14.00;99.90
5899;DHT22;2975;50.956;6.962;2023-05-10T00:50:28;14.00;99.90
5899;DHT22;2975;50.956;6.962;2023-05-10T00:52:54;14.00;99.90
5899;DHT22;2975;50.956;6.962;2023-05-10T00:55:20;14.00;99.90
5899;DHT22;2975;50.956;6.962;2023-05-10T00:57:47;14.00;99.90
5899;DHT22;2975;50.956;6.962;2023-05-10T01:00:13;14.00;99.90
5899;DHT22;2975;50.956;6.962;2023-05-10T01:02:46;14.00;99.90
5899;DHT22;2975;50.956;6.962;2023-05-10T01:05:12;14.00;99.90
5899;DHT22;2975;50.956;6.962;2023-05-10T01:07:38;14.00;99.90
5899;DHT22;2975;50.956;6.962;2023-05-10T01:10:05;14.00;99.90
5899;DHT22;2975;50.956;6.962;2023-05-10T01:12:31;14.10;99.90
5899;DHT22;2975;50.956;6.962;2023-05-10T01:14:57;14.00;99.90
5899;DHT22;2975;50.956;6.962;2023-05-10T01:17:23;14.00;99.90
5899;DHT22;2975;50.956;6.962;2023-05-10T01:19:49;14.00;99.90
5899;DHT22;2975;50.956;6.962;2023-05-10T01:25:37;14.10;99.90
5899;DHT22;2975;50.956;6.962;2023-05-10T01:31:21;14.10;99.90
5899;DHT22;2975;50.956;6.962;2023-05-10T01:33:55;14.10;99.90
5899;DHT22;2975;50.956;6.962;2023-05-10T01:36:35;14.10;99.90
5899;DHT22;2975;50.956;6.962;2023-05-10T01:39:15;14.10;99.90
5899;DHT22;2975;50.956;6.962;2023-05-10T01:41:55;14.10;99.90
5899;DHT22;2975;50.956;6.962;2023-05-10T01:47:09;14.20;99.90
5899;DHT22;2975;50.956;6.962;2023-05-10T01:49:41;14.20;99.90
5899;DHT22;2975;50.956;6.962;2023-05-10T01:52:11;14.10;99.90
5899;DHT22;2975;50.956;6.962;2023-05-10T01:54:49;14.10;99.90
5899;DHT22;2975;50.956;6.962;2023-05-10T01:57:16;14.10;99.90
5899;DHT22;2975;50.956;6.962;2023-05-10T01:59:45;14.10;99.90
5899;DHT22;2975;50.956;6.962;2023-05-10T02:02:15;14.20;99.90
5899;DHT22;2975;50.956;6.962;2023-05-10T02:04:43;14.20;99.90
5899;DHT22;2975;50.956;6.962;2023-05-10T02:07:10;14.10;99.90
5899;DHT22;2975;50.956;6.962;2023-05-10T02:09:37;14.10;99.90
5899;DHT22;2975;50.956;6.962;2023-05-10T02:12:05;14.00;99.90
5899;DHT22;2975;50.956;6.962;2023-05-10T02:14:35;13.90;99.90
5899;DHT22;2975;50.956;6.962;2023-05-10T02:17:04;13.80;99.90
5899;DHT22;2975;50.956;6.962;2023-05-10T02:19:31;13.80;99.90
5899;DHT22;2975;50.956;6.962;2023-05-10T02:21:59;13.80;99.90
5899;DHT22;2975;50.956;6.962;2023-05-10T02:24:25;13.80;99.90
5899;DHT22;2975;50.956;6.962;2023-05-10T02:26:53;13.70;99.90
5899;DHT22;2975;50.956;6.962;2023-05-10T02:29:20;13.70;99.90
5899;DHT22;2975;50.956;6.962;2023-05-10T02:31:46;13.70;99.90
5899;DHT22;2975;50.956;6.962;2023-05-10T02:34:13;13.70;99.90
5899;DHT22;2975;50.956;6.962;2023-05-10T02:36:40;13.70;99.90
5899;DHT22;2975;50.956;6.962;2023-05-10T02:39:06;13.70;99.90
5899;DHT22;2975;50.956;6.962;2023-05-10T02:41:38;13.70;99.90
5899;DHT22;2975;50.956;6.962;2023-05-10T02:44:06;13.70;99.90
5899;DHT22;2975;50.956;6.962;2023-05-10T02:46:33;13.70;99.90
5899;DHT22;2975;50.956;6.962;2023-05-10T02:48:59;13.70;99.90
5899;DHT22;2975;50.956;6.962;2023-05-10T02:51:30;13.70;99.90
5899;DHT22;2975;50.956;6.962;2023-05-10T02:53:57;13.70;99.90
5899;DHT22;2975;50.956;6.962;2023-05-10T02:56:33;13.70;99.90
5899;DHT22;2975;50.956;6.962;2023-05-10T02:58:59;13.70;99.90
5899;DHT22;2975;50.956;6.962;2023-05-10T03:01:25;13.70;99.90
5899;DHT22;2975;50.956;6.962;2023-05-10T03:03:51;13.70;99.90
5899;DHT22;2975;50.956;6.962;2023-05-10T03:06:16;13.70;99.90
5899;DHT22;2975;50.956;6.962;2023-05-10T03:08:44;13.70;99.90
5899;DHT22;2975;50.956;6.962;2023-05-10T03:17:25;13.70;99.90
5899;DHT22;2975;50.956;6.962;2023-05-10T03:20:01;13.70;99.90
5899;DHT22;2975;50.956;6.962;2023-05-10T03:22:40;13.70;99.90
5899;DHT22;2975;50.956;6.962;2023-05-10T03:25:11;13.70;99.90
5899;DHT22;2975;50.956;6.962;2023-05-10T03:27:40;13.70;99.90
5899;DHT22;2975;50.956;6.962;2023-05-10T03:30:08;13.70;99.90
5899;DHT22;2975;50.956;6.962;2023-05-10T03:32:35;13.70;99.90
5899;DHT22;2975;50.956;6.962;2023-05-10T03:35:06;13.80;99.90
5899;DHT22;2975;50.956;6.962;2023-05-10T03:37:32;13.80;99.90
5899;DHT22;2975;50.956;6.962;2023-05-10T03:39:58;13.80;99.90
5899;DHT22;2975;50.956;6.962;2023-05-10T03:42:23;13.80;99.90
5899;DHT22;2975;50.956;6.962;2023-05-10T03:44:49;13.80;99.90
5899;DHT22;2975;50.956;6.962;2023-05-10T03:47:15;13.80;99.90
5899;DHT22;2975;50.956;6.962;2023-05-10T03:49:40;13.80;99.90
5899;DHT22;2975;50.956;6.962;2023-05-10T03:52:06;13.80;99.90
5899;DHT22;2975;50.956;6.962;2023-05-10T03:54:32;13.80;99.90
5899;DHT22;2975;50.956;6.962;2023-05-10T03:56:57;13.80;99.90
5899;DHT22;2975;50.956;6.962;2023-05-10T03:59:23;13.80;99.90
5899;DHT22;2975;50.956;6.962;2023-05-10T04:01:48;13.80;99.90
5899;DHT22;2975;50.956;6.962;2023-05-10T04:04:14;13.80;99.90
5899;DHT22;2975;50.956;6.962;2023-05-10T04:06:39;13.80;99.90
5899;DHT22;2975;50.956;6.962;2023-05-10T04:09:05;13.90;99.90
5899;DHT22;2975;50.956;6.962;2023-05-10T04:11:31;13.90;99.90
5899;DHT22;2975;50.956;6.962;2023-05-10T04:13:56;13.90;99.90
5899;DHT22;2975;50.956;6.962;2023-05-10T04:16:22;14.00;99.90
5899;DHT22;2975;50.956;6.962;2023-05-10T04:18:47;14.00;99.90
5899;DHT22;2975;50.956;6.962;2023-05-10T04:21:14;13.90;99.90
5899;DHT22;2975;50.956;6.962;2023-05-10T04:23:40;14.00;99.90
5899;DHT22;2975;50.956;6.962;2023-05-10T04:26:06;14.00;99.90
5899;DHT22;2975;50.956;6.962;2023-05-10T04:28:32;14.00;99.90
5899;DHT22;2975;50.956;6.962;2023-05-10T04:31:07;14.00;99.90
5899;DHT22;2975;50.956;6.962;2023-05-10T04:33:33;14.00;99.90
5899;DHT22;2975;50.956;6.962;2023-05-10T04:36:00;14.10;99.90
5899;DHT22;2975;50.956;6.962;2023-05-10T04:38:26;14.10;99.90
5899;DHT22;2975;50.956;6.962;2023-05-10T04:40:52;14.10;99.90
5899;DHT22;2975;50.956;6.962;2023-05-10T04:43:18;14.10;99.90
5899;DHT22;2975;50.956;6.962;2023-05-10T04:45:43;14.10;99.90
5899;DHT22;2975;50.956;6.962;2023-05-10T04:48:09;14.10;99.90
5899;DHT22;2975;50.956;6.962;2023-05-10T04:50:35;14.10;99.90
5899;DHT22;2975;50.956;6.962;2023-05-10T04:53:00;14.10;99.90
5899;DHT22;2975;50.956;6.962;2023-05-10T04:55:26;14.10;99.90
5899;DHT22;2975;50.956;6.962;2023-05-10T04:57:52;14.10;99.90
5899;DHT22;2975;50.956;6.962;2023-05-10T05:00:18;14.10;99.90
5899;DHT22;2975;50.956;6.962;2023-05-10T05:02:45;14.20;99.90
5899;DHT22;2975;50.956;6.962;2023-05-10T05:05:11;14.20;99.90
5899;DHT22;2975;50.956;6.962;2023-05-10T05:07:37;14.20;99.90
5899;DHT22;2975;50.956;6.962;2023-05-10T05:10:07;14.30;99.90
5899;DHT22;2975;50.956;6.962;2023-05-10T05:12:33;14.30;99.90
5899;DHT22;2975;50.956;6.962;2023-05-10T05:14:59;14.40;99.90
5899;DHT22;2975;50.956;6.962;2023-05-10T05:17:24;14.40;99.90
5899;DHT22;2975;50.956;6.962;2023-05-10T05:19:50;14.50;99.90
5899;DHT22;2975;50.956;6.962;2023-05-10T05:22:16;14.50;99.90
5899;DHT22;2975;50.956;6.962;2023-05-10T05:24:41;14.70;99.90
5899;DHT22;2975;50.956;6.962;2023-05-10T05:27:07;14.70;99.90
5899;DHT22;2975;50.956;6.962;2023-05-10T05:29:33;14.80;99.90
5899;DHT22;2975;50.956;6.962;2023-05-10T05:31:59;14.80;99.90
5899;DHT22;2975;50.956;6.962;2023-05-10T05:34:24;14.80;99.90
5899;DHT22;2975;50.956;6.962;2023-05-10T05:36:50;14.70;99.90
5899;DHT22;2975;50.956;6.962;2023-05-10T05:39:16;14.70;99.90
5899;DHT22;2975;50.956;6.962;2023-05-10T05:41:42;14.80;99.90
5899;DHT22;2975;50.956;6.962;2023-05-10T05:44:07;14.80;99.90
5899;DHT22;2975;50.956;6.962;2023-05-10T05:46:33;14.80;99.90
5899;DHT22;2975;50.956;6.962;2023-05-10T05:48:59;14.80;99.90
5899;DHT22;2975;50.956;6.962;2023-05-10T05:51:24;14.90;99.90
5899;DHT22;2975;50.956;6.962;2023-05-10T05:53:50;14.90;99.90
5899;DHT22;2975;50.956;6.962;2023-05-10T05:56:16;14.90;99.90
5899;DHT22;2975;50.956;6.962;2023-05-10T05:58:42;15.00;99.90
5899;DHT22;2975;50.956;6.962;2023-05-10T06:01:08;15.10;99.90
5899;DHT22;2975;50.956;6.962;2023-05-10T06:03:34;15.20;99.90
5899;DHT22;2975;50.956;6.962;2023-05-10T06:06:00;15.30;99.90
5899;DHT22;2975;50.956;6.962;2023-05-10T06:08:25;15.30;99.90
5899;DHT22;2975;50.956;6.962;2023-05-10T06:10:51;15.40;99.90
5899;DHT22;2975;50.956;6.962;2023-05-10T06:13:16;15.30;99.90
5899;DHT22;2975;50.956;6.962;2023-05-10T06:15:42;15.30;99.90
5899;DHT22;2975;50.956;6.962;2023-05-10T06:18:08;15.30;99.90
5899;DHT22;2975;50.956;6.962;2023-05-10T06:20:33;15.20;99.90
5899;DHT22;2975;50.956;6.962;2023-05-10T06:22:59;15.20;99.90
5899;DHT22;2975;50.956;6.962;2023-05-10T06:25:25;15.20;99.90
5899;DHT22;2975;50.956;6.962;2023-05-10T06:27:50;15.20;99.90
5899;DHT22;2975;50.956;6.962;2023-05-10T06:30:20;15.20;99.90
5899;DHT22;2975;50.956;6.962;2023-05-10T06:32:48;15.10;99.90
5899;DHT22;2975;50.956;6.962;2023-05-10T06:35:13;15.10;99.90
5899;DHT22;2975;50.956;6.962;2023-05-10T06:37:39;15.20;99.90
5899;DHT22;2975;50.956;6.962;2023-05-10T06:40:06;15.00;99.90
5899;DHT22;2975;50.956;6.962;2023-05-10T06:42:31;15.00;99.90
5899;DHT22;2975;50.956;6.962;2023-05-10T06:44:57;15.00;99.90
5899;DHT22;2975;50.956;6.962;2023-05-10T06:47:23;15.00;99.90
5899;DHT22;2975;50.956;6.962;2023-05-10T06:49:48;15.00;99.90
5899;DHT22;2975;50.956;6.962;2023-05-10T06:52:14;14.90;99.90
5899;DHT22;2975;50.956;6.962;2023-05-10T06:54:40;14.80;99.90
5899;DHT22;2975;50.956;6.962;2023-05-10T06:57:05;14.70;99.90
5899;DHT22;2975;50.956;6.962;2023-05-10T06:59:31;14.70;99.90
5899;DHT22;2975;50.956;6.962;2023-05-10T07:01:57;14.70;99.90
5899;DHT22;2975;50.956;6.962;2023-05-10T07:04:23;14.60;99.90
5899;DHT22;2975;50.956;6.962;2023-05-10T07:06:48;14.60;99.90
5899;DHT22;2975;50.956;6.962;2023-05-10T07:09:15;14.60;99.90
5899;DHT22;2975;50.956;6.962;2023-05-10T07:11:41;14.60;99.90
5899;DHT22;2975;50.956;6.962;2023-05-10T07:14:06;14.60;99.90
5899;DHT22;2975;50.956;6.962;2023-05-10T07:16:32;14.70;99.90
5899;DHT22;2975;50.956;6.962;2023-05-10T07:18:58;14.70;99.90
5899;DHT22;2975;50.956;6.962;2023-05-10T07:21:23;14.80;99.90
5899;DHT22;2975;50.956;6.962;2023-05-10T07:23:49;15.00;99.90
5899;DHT22;2975;50.956;6.962;2023-05-10T07:26:15;15.10;99.90
5899;DHT22;2975;50.956;6.962;2023-05-10T07:28:41;15.30;99.90
5899;DHT22;2975;50.956;6.962;2023-05-10T07:31:07;15.40;99.90
5899;DHT22;2975;50.956;6.962;2023-05-10T07:33:33;15.40;99.90
5899;DHT22;2975;50.956;6.962;2023-05-10T07:35:58;15.40;99.90
5899;DHT22;2975;50.956;6.962;2023-05-10T07:38:24;15.50;99.90
5899;DHT22;2975;50.956;6.962;2023-05-10T07:40:49;15.50;99.90
5899;DHT22;2975;50.956;6.962;2023-05-10T07:43:15;15.50;99.90
5899;DHT22;2975;50.956;6.962;2023-05-10T07:45:40;15.50;99.90
5899;DHT22;2975;50.956;6.962;2023-05-10T07:48:06;15.50;99.90
5899;DHT22;2975;50.956;6.962;2023-05-10T07:50:32;15.30;99.90
5899;DHT22;2975;50.956;6.962;2023-05-10T07:52:58;15.30;99.90
5899;DHT22;2975;50.956;6.962;2023-05-10T07:55:23;15.40;99.90
5899;DHT22;2975;50.956;6.962;2023-05-10T07:57:49;15.40;99.90
5899;DHT22;2975;50.956;6.962;2023-05-10T08:00:17;15.50;99.90
5899;DHT22;2975;50.956;6.962;2023-05-10T08:02:43;15.40;99.90
5899;DHT22;2975;50.956;6.962;2023-05-10T08:05:09;15.40;99.90
5899;DHT22;2975;50.956;6.962;2023-05-10T08:07:35;15.40;99.90
5899;DHT22;2975;50.956;6.962;2023-05-10T08:10:01;15.40;99.90
5899;DHT22;2975;50.956;6.962;2023-05-10T08:12:27;15.50;99.90
5899;DHT22;2975;50.956;6.962;2023-05-10T08:14:52;15.40;99.90
5899;DHT22;2975;50.956;6.962;2023-05-10T08:17:18;15.50;99.90
5899;DHT22;2975;50.956;6.962;2023-05-10T08:19:43;15.50;99.90
5899;DHT22;2975;50.956;6.962;2023-05-10T08:22:09;15.60;99.90
5899;DHT22;2975;50.956;6.962;2023-05-10T08:24:35;15.80;99.90
5899;DHT22;2975;50.956;6.962;2023-05-10T08:27:07;15.90;99.90
5899;DHT22;2975;50.956;6.962;2023-05-10T08:29:33;16.20;99.90
5899;DHT22;2975;50.956;6.962;2023-05-10T08:31:58;16.30;99.90
5899;DHT22;2975;50.956;6.962;2023-05-10T08:34:24;16.20;99.90
5899;DHT22;2975;50.956;6.962;2023-05-10T08:36:50;16.20;99.90
5899;DHT22;2975;50.956;6.962;2023-05-10T08:39:16;16.20;99.90
5899;DHT22;2975;50.956;6.962;2023-05-10T08:41:44;16.30;99.90
5899;DHT22;2975;50.956;6.962;2023-05-10T08:44:10;16.40;99.90
5899;DHT22;2975;50.956;6.962;2023-05-10T08:46:37;16.40;99.90
5899;DHT22;2975;50.956;6.962;2023-05-10T08:49:09;16.50;99.90
5899;DHT22;2975;50.956;6.962;2023-05-10T08:51:40;16.60;99.90
5899;DHT22;2975;50.956;6.962;2023-05-10T08:54:09;16.60;99.90
5899;DHT22;2975;50.956;6.962;2023-05-10T08:56:35;16.60;99.90
5899;DHT22;2975;50.956;6.962;2023-05-10T08:59:01;16.50;99.90
5899;DHT22;2975;50.956;6.962;2023-05-10T09:01:27;16.30;99.90
5899;DHT22;2975;50.956;6.962;2023-05-10T09:03:53;16.30;99.90
5899;DHT22;2975;50.956;6.962;2023-05-10T09:06:19;16.10;99.90
5899;DHT22;2975;50.956;6.962;2023-05-10T09:08:45;16.00;99.90
5899;DHT22;2975;50.956;6.962;2023-05-10T09:11:12;16.10;99.90
5899;DHT22;2975;50.956;6.962;2023-05-10T09:13:38;16.40;99.90
5899;DHT22;2975;50.956;6.962;2023-05-10T09:16:04;16.60;99.90
5899;DHT22;2975;50.956;6.962;2023-05-10T09:18:30;17.10;99.90
5899;DHT22;2975;50.956;6.962;2023-05-10T09:20:56;17.90;99.90
5899;DHT22;2975;50.956;6.962;2023-05-10T09:23:21;17.90;99.90
5899;DHT22;2975;50.956;6.962;2023-05-10T09:25:47;17.60;99.90
5899;DHT22;2975;50.956;6.962;2023-05-10T09:28:13;17.20;99.90
5899;DHT22;2975;50.956;6.962;2023-05-10T09:30:38;16.90;99.90
5899;DHT22;2975;50.956;6.962;2023-05-10T09:33:04;16.60;99.90
5899;DHT22;2975;50.956;6.962;2023-05-10T09:35:32;16.50;99.90
5899;DHT22;2975;50.956;6.962;2023-05-10T09:38:04;16.50;99.90
5899;DHT22;2975;50.956;6.962;2023-05-10T09:40:31;16.40;99.90
5899;DHT22;2975;50.956;6.962;2023-05-10T09:43:07;16.20;99.90
5899;DHT22;2975;50.956;6.962;2023-05-10T09:45:34;16.00;99.90
5899;DHT22;2975;50.956;6.962;2023-05-10T09:48:02;16.10;99.90
5899;DHT22;2975;50.956;6.962;2023-05-10T09:50:28;16.10;99.90
5899;DHT22;2975;50.956;6.962;2023-05-10T09:55:26;16.40;99.90
5899;DHT22;2975;50.956;6.962;2023-05-10T09:57:59;16.50;99.90
5899;DHT22;2975;50.956;6.962;2023-05-10T10:00:26;16.80;99.90
5899;DHT22;2975;50.956;6.962;2023-05-10T10:02:57;16.90;99.90
5899;DHT22;2975;50.956;6.962;2023-05-10T10:05:32;16.80;99.90
5899;DHT22;2975;50.956;6.962;2023-05-10T10:07:58;16.60;99.90
5899;DHT22;2975;50.956;6.962;2023-05-10T10:10:25;16.60;99.90
5899;DHT22;2975;50.956;6.962;2023-05-10T10:12:51;16.60;99.90
5899;DHT22;2975;50.956;6.962;2023-05-10T10:15:17;17.10;99.90
5899;DHT22;2975;50.956;6.962;2023-05-10T10:17:43;17.40;99.90
5899;DHT22;2975;50.956;6.962;2023-05-10T10:20:09;17.20;99.90
5899;DHT22;2975;50.956;6.962;2023-05-10T10:22:35;17.30;99.90
5899;DHT22;2975;50.956;6.962;2023-05-10T10:25:02;17.50;99.90
5899;DHT22;2975;50.956;6.962;2023-05-10T10:30:43;18.10;99.90
5899;DHT22;2975;50.956;6.962;2023-05-10T10:33:27;18.60;99.90
5899;DHT22;2975;50.956;6.962;2023-05-10T10:35:54;18.80;99.90
5899;DHT22;2975;50.956;6.962;2023-05-10T10:38:21;18.60;99.90
5899;DHT22;2975;50.956;6.962;2023-05-10T10:40:47;18.70;99.90
5899;DHT22;2975;50.956;6.962;2023-05-10T10:43:26;18.80;99.90
5899;DHT22;2975;50.956;6.962;2023-05-10T10:46:13;19.00;99.90
5899;DHT22;2975;50.956;6.962;2023-05-10T10:48:39;19.50;99.90
5899;DHT22;2975;50.956;6.962;2023-05-10T10:51:05;19.30;99.90
5899;DHT22;2975;50.956;6.962;2023-05-10T10:53:31;19.40;99.90
5899;DHT22;2975;50.956;6.962;2023-05-10T10:56:11;19.30;99.90
5899;DHT22;2975;50.956;6.962;2023-05-10T10:58:38;19.10;99.90
5899;DHT22;2975;50.956;6.962;2023-05-10T11:01:21;19.10;99.90
5899;DHT22;2975;50.956;6.962;2023-05-10T11:06:34;18.90;99.90
5899;DHT22;2975;50.956;6.962;2023-05-10T11:09:07;18.80;99.90
5899;DHT22;2975;50.956;6.962;2023-05-10T11:11:35;18.80;99.90
5899;DHT22;2975;50.956;6.962;2023-05-10T11:14:05;18.90;99.90
5899;DHT22;2975;50.956;6.962;2023-05-10T11:16:44;19.10;99.90
5899;DHT22;2975;50.956;6.962;2023-05-10T11:19:17;19.40;99.90
5899;DHT22;2975;50.956;6.962;2023-05-10T11:24:27;19.70;99.90
5899;DHT22;2975;50.956;6.962;2023-05-10T11:26:53;19.40;99.70
5899;DHT22;2975;50.956;6.962;2023-05-10T11:29:19;19.20;99.90
5899;DHT22;2975;50.956;6.962;2023-05-10T11:31:46;19.30;99.90
5899;DHT22;2975;50.956;6.962;2023-05-10T11:34:28;19.20;99.90
5899;DHT22;2975;50.956;6.962;2023-05-10T11:36:56;19.30;99.90
5899;DHT22;2975;50.956;6.962;2023-05-10T11:39:26;19.50;99.90
5899;DHT22;2975;50.956;6.962;2023-05-10T11:41:52;19.80;99.90
5899;DHT22;2975;50.956;6.962;2023-05-10T11:44:18;19.50;99.80
5899;DHT22;2975;50.956;6.962;2023-05-10T11:46:43;19.50;99.30
5899;DHT22;2975;50.956;6.962;2023-05-10T11:49:10;19.40;99.60
5899;DHT22;2975;50.956;6.962;2023-05-10T11:51:36;19.30;99.70
5899;DHT22;2975;50.956;6.962;2023-05-10T11:54:05;19.60;99.90
5899;DHT22;2975;50.956;6.962;2023-05-10T11:56:32;19.40;99.20
5899;DHT22;2975;50.956;6.962;2023-05-10T11:58:59;19.30;98.90
5899;DHT22;2975;50.956;6.962;2023-05-10T12:01:27;19.30;97.40
5899;DHT22;2975;50.956;6.962;2023-05-10T12:03:54;19.00;98.00
5899;DHT22;2975;50.956;6.962;2023-05-10T12:06:21;18.80;99.50
5899;DHT22;2975;50.956;6.962;2023-05-10T12:08:47;18.90;99.90
5899;DHT22;2975;50.956;6.962;2023-05-10T12:11:14;19.00;98.40
5899;DHT22;2975;50.956;6.962;2023-05-10T12:13:41;19.10;98.30
5899;DHT22;2975;50.956;6.962;2023-05-10T12:16:28;19.10;99.90
5899;DHT22;2975;50.956;6.962;2023-05-10T12:18:58;19.30;98.20
5899;DHT22;2975;50.956;6.962;2023-05-10T12:21:24;19.40;98.00
5899;DHT22;2975;50.956;6.962;2023-05-10T12:23:58;19.60;97.90
5899;DHT22;2975;50.956;6.962;2023-05-10T12:26:25;19.80;97.00
5899;DHT22;2975;50.956;6.962;2023-05-10T12:28:53;19.90;96.90
5899;DHT22;2975;50.956;6.962;2023-05-10T12:31:18;20.10;98.10
5899;DHT22;2975;50.956;6.962;2023-05-10T12:33:45;19.90;96.10
5899;DHT22;2975;50.956;6.962;2023-05-10T12:36:13;19.80;96.60
5899;DHT22;2975;50.956;6.962;2023-05-10T12:38:41;20.00;97.00
5899;DHT22;2975;50.956;6.962;2023-05-10T12:41:12;20.20;97.10
5899;DHT22;2975;50.956;6.962;2023-05-10T12:43:39;20.30;96.40
5899;DHT22;2975;50.956;6.962;2023-05-10T12:46:15;20.00;96.20
5899;DHT22;2975;50.956;6.962;2023-05-10T12:48:44;20.00;96.40
5899;DHT22;2975;50.956;6.962;2023-05-10T12:51:10;20.00;96.40
5899;DHT22;2975;50.956;6.962;2023-05-10T12:53:37;20.20;97.20
5899;DHT22;2975;50.956;6.962;2023-05-10T12:56:03;20.10;96.20
5899;DHT22;2975;50.956;6.962;2023-05-10T12:58:29;20.20;96.80
5899;DHT22;2975;50.956;6.962;2023-05-10T13:00:55;20.20;96.50
5899;DHT22;2975;50.956;6.962;2023-05-10T13:03:22;20.30;96.60
5899;DHT22;2975;50.956;6.962;2023-05-10T13:05:47;20.40;95.40
5899;DHT22;2975;50.956;6.962;2023-05-10T13:08:13;20.60;95.00
5899;DHT22;2975;50.956;6.962;2023-05-10T13:10:39;21.00;94.10
5899;DHT22;2975;50.956;6.962;2023-05-10T13:13:04;21.50;93.30
5899;DHT22;2975;50.956;6.962;2023-05-10T13:15:30;21.60;93.10
5899;DHT22;2975;50.956;6.962;2023-05-10T13:17:56;21.20;92.80
5899;DHT22;2975;50.956;6.962;2023-05-10T13:20:21;20.80;93.20
5899;DHT22;2975;50.956;6.962;2023-05-10T13:22:47;20.60;93.80
5899;DHT22;2975;50.956;6.962;2023-05-10T13:25:13;20.50;94.60
5899;DHT22;2975;50.956;6.962;2023-05-10T13:27:41;19.90;94.10
5899;DHT22;2975;50.956;6.962;2023-05-10T13:30:08;19.70;94.60
5899;DHT22;2975;50.956;6.962;2023-05-10T13:32:34;19.90;94.90
5899;DHT22;2975;50.956;6.962;2023-05-10T13:34:59;19.80;95.70
5899;DHT22;2975;50.956;6.962;2023-05-10T13:37:25;20.00;95.50
5899;DHT22;2975;50.956;6.962;2023-05-10T13:39:51;19.80;95.10
5899;DHT22;2975;50.956;6.962;2023-05-10T13:42:17;19.40;97.10
5899;DHT22;2975;50.956;6.962;2023-05-10T13:44:43;19.40;98.10
5899;DHT22;2975;50.956;6.962;2023-05-10T13:47:08;19.40;97.40
5899;DHT22;2975;50.956;6.962;2023-05-10T13:49:34;19.30;96.90
5899;DHT22;2975;50.956;6.962;2023-05-10T13:52:00;19.30;97.30
5899;DHT22;2975;50.956;6.962;2023-05-10T13:54:34;19.30;98.20
5899;DHT22;2975;50.956;6.962;2023-05-10T13:57:01;19.50;96.80
5899;DHT22;2975;50.956;6.962;2023-05-10T13:59:26;19.50;96.00
5899;DHT22;2975;50.956;6.962;2023-05-10T14:01:52;19.60;95.80
5899;DHT22;2975;50.956;6.962;2023-05-10T14:04:18;19.90;95.50
5899;DHT22;2975;50.956;6.962;2023-05-10T14:06:43;19.70;95.20
5899;DHT22;2975;50.956;6.962;2023-05-10T14:09:09;19.90;95.30
5899;DHT22;2975;50.956;6.962;2023-05-10T14:11:34;20.20;96.10
5899;DHT22;2975;50.956;6.962;2023-05-10T14:14:00;20.20;95.60
5899;DHT22;2975;50.956;6.962;2023-05-10T14:16:26;20.40;95.30
5899;DHT22;2975;50.956;6.962;2023-05-10T14:18:52;20.30;94.40
5899;DHT22;2975;50.956;6.962;2023-05-10T14:21:18;20.20;95.20
5899;DHT22;2975;50.956;6.962;2023-05-10T14:23:43;20.30;95.10
5899;DHT22;2975;50.956;6.962;2023-05-10T14:26:09;20.50;94.40
5899;DHT22;2975;50.956;6.962;2023-05-10T14:28:35;20.80;94.10
5899;DHT22;2975;50.956;6.962;2023-05-10T14:31:00;21.00;93.40
5899;DHT22;2975;50.956;6.962;2023-05-10T14:33:26;21.00;93.20
5899;DHT22;2975;50.956;6.962;2023-05-10T14:35:53;21.30;93.10
5899;DHT22;2975;50.956;6.962;2023-05-10T14:38:19;21.00;91.60
5899;DHT22;2975;50.956;6.962;2023-05-10T14:40:44;21.00;91.30
5899;DHT22;2975;50.956;6.962;2023-05-10T14:43:10;21.20;91.90
5899;DHT22;2975;50.956;6.962;2023-05-10T14:45:36;21.20;92.80
5899;DHT22;2975;50.956;6.962;2023-05-10T14:48:01;21.20;92.70
5899;DHT22;2975;50.956;6.962;2023-05-10T14:50:30;21.00;93.40
5899;DHT22;2975;50.956;6.962;2023-05-10T14:52:56;20.70;93.70
5899;DHT22;2975;50.956;6.962;2023-05-10T14:55:22;20.30;93.50
5899;DHT22;2975;50.956;6.962;2023-05-10T14:57:47;20.00;93.60
5899;DHT22;2975;50.956;6.962;2023-05-10T15:00:15;19.60;94.90
5899;DHT22;2975;50.956;6.962;2023-05-10T15:02:41;19.30;95.40
5899;DHT22;2975;50.956;6.962;2023-05-10T15:05:07;19.30;95.40
5899;DHT22;2975;50.956;6.962;2023-05-10T15:07:32;19.20;95.70
5899;DHT22;2975;50.956;6.962;2023-05-10T15:09:58;19.00;96.80
5899;DHT22;2975;50.956;6.962;2023-05-10T15:12:24;18.70;96.60
5899;DHT22;2975;50.956;6.962;2023-05-10T15:14:49;18.60;97.10
5899;DHT22;2975;50.956;6.962;2023-05-10T15:17:15;18.50;97.00
5899;DHT22;2975;50.956;6.962;2023-05-10T15:19:41;18.40;98.10
5899;DHT22;2975;50.956;6.962;2023-05-10T15:22:07;18.30;99.90
5899;DHT22;2975;50.956;6.962;2023-05-10T15:24:33;18.10;99.90
5899;DHT22;2975;50.956;6.962;2023-05-10T15:26:58;18.00;99.90
5899;DHT22;2975;50.956;6.962;2023-05-10T15:29:24;18.00;99.90
5899;DHT22;2975;50.956;6.962;2023-05-10T15:31:50;17.80;99.90
5899;DHT22;2975;50.956;6.962;2023-05-10T15:34:17;17.60;99.90
5899;DHT22;2975;50.956;6.962;2023-05-10T15:36:43;17.50;99.90
5899;DHT22;2975;50.956;6.962;2023-05-10T15:39:09;17.50;99.90
5899;DHT22;2975;50.956;6.962;2023-05-10T15:41:35;17.50;99.90
5899;DHT22;2975;50.956;6.962;2023-05-10T15:44:01;17.60;99.90
5899;DHT22;2975;50.956;6.962;2023-05-10T15:46:27;17.60;99.90
5899;DHT22;2975;50.956;6.962;2023-05-10T15:48:53;17.70;99.90
5899;DHT22;2975;50.956;6.962;2023-05-10T15:51:19;17.90;99.90
5899;DHT22;2975;50.956;6.962;2023-05-10T15:53:45;18.10;99.90
5899;DHT22;2975;50.956;6.962;2023-05-10T15:56:11;18.30;99.90
5899;DHT22;2975;50.956;6.962;2023-05-10T15:58:40;18.50;99.90
5899;DHT22;2975;50.956;6.962;2023-05-10T16:01:06;18.80;99.90
5899;DHT22;2975;50.956;6.962;2023-05-10T16:03:33;18.70;99.60
5899;DHT22;2975;50.956;6.962;2023-05-10T16:05:59;18.70;99.90
5899;DHT22;2975;50.956;6.962;2023-05-10T16:08:25;18.80;99.90
5899;DHT22;2975;50.956;6.962;2023-05-10T16:10:51;19.00;99.60
5899;DHT22;2975;50.956;6.962;2023-05-10T16:13:17;19.00;98.80
5899;DHT22;2975;50.956;6.962;2023-05-10T16:15:42;19.00;98.30
5899;DHT22;2975;50.956;6.962;2023-05-10T16:18:08;19.00;97.90
5899;DHT22;2975;50.956;6.962;2023-05-10T16:20:34;19.00;98.20
5899;DHT22;2975;50.956;6.962;2023-05-10T16:23:04;19.10;98.60
5899;DHT22;2975;50.956;6.962;2023-05-10T16:25:31;19.20;98.70
5899;DHT22;2975;50.956;6.962;2023-05-10T16:27:57;19.30;99.90